AZ-0021 weather

Kyzylagadzh Air Base
Masalli, Azerbaijan

Public forecast

Using degrees Celsius for public forecast. Weather courtesy of forecast.io.

Closest aviation weather report (METAR) to Kyzylagadzh Air Base

Closest report is Lankaran International Airport, 15.6 nm (28.9 km) S. Retrieved 2020/04/05 05:00 UTC (51 minutes ago):

UBBL 050500Z 17006KT 9999 BKN011 12/10 Q1026 R33/CLRD// NOSIG RMK MT OP

Closest aviation forecast (TAF) to Kyzylagadzh Air Base

Closest forecast is Lankaran International Airport, 15.6 nm (28.9 km) S. Retrieved 2020-04-05 00:00 UTC (6 hours ago):

TAF UBBL 042316Z 0500/0524 12005KT 3000 BR BKN010 TX14/0510Z TN06/0502Z TEMPO 0500/0505 VRB04KT 0800 FG BKN003 BECMG 0505/0507 16006KT 9999 NSW SCT012